sensor_id;sensor_type;location;lat;lon;timestamp;P1;durP1;ratioP1;P2;durP2;ratioP2
49820;SDS011;36893;52.520;13.450;2023-04-15T00:00:22;1.03;;;0.70;;
49820;SDS011;36893;52.520;13.450;2023-04-15T00:10:23;2.35;;;0.88;;
49820;SDS011;36893;52.520;13.450;2023-04-15T00:20:24;1.98;;;0.88;;
49820;SDS011;36893;52.520;13.450;2023-04-15T00:30:25;0.40;;;0.40;;
49820;SDS011;36893;52.520;13.450;2023-04-15T00:40:26;1.40;;;0.40;;
49820;SDS011;36893;52.520;13.450;2023-04-15T00:50:26;1.03;;;0.60;;
49820;SDS011;36893;52.520;13.450;2023-04-15T01:00:27;2.87;;;1.43;;
49820;SDS011;36893;52.520;13.450;2023-04-15T01:10:29;0.63;;;0.57;;
49820;SDS011;36893;52.520;13.450;2023-04-15T01:20:30;2.80;;;0.90;;
49820;SDS011;36893;52.520;13.450;2023-04-15T01:30:34;2.22;;;1.02;;
49820;SDS011;36893;52.520;13.450;2023-04-15T01:40:35;1.45;;;0.70;;
49820;SDS011;36893;52.520;13.450;2023-04-15T01:50:36;1.23;;;0.80;;
49820;SDS011;36893;52.520;13.450;2023-04-15T02:00:37;1.15;;;0.47;;
49820;SDS011;36893;52.520;13.450;2023-04-15T02:10:37;1.43;;;0.87;;
49820;SDS011;36893;52.520;13.450;2023-04-15T02:20:38;1.20;;;0.90;;
49820;SDS011;36893;52.520;13.450;2023-04-15T02:30:40;0.38;;;0.38;;
49820;SDS011;36893;52.520;13.450;2023-04-15T02:40:41;1.93;;;0.60;;
49820;SDS011;36893;52.520;13.450;2023-04-15T02:50:41;1.37;;;1.27;;
49820;SDS011;36893;52.520;13.450;2023-04-15T03:00:42;1.27;;;0.70;;
49820;SDS011;36893;52.520;13.450;2023-04-15T03:10:42;0.70;;;0.60;;
49820;SDS011;36893;52.520;13.450;2023-04-15T03:20:43;2.23;;;0.70;;
49820;SDS011;36893;52.520;13.450;2023-04-15T03:30:44;0.87;;;0.67;;
49820;SDS011;36893;52.520;13.450;2023-04-15T03:40:45;1.30;;;0.57;;
49820;SDS011;36893;52.520;13.450;2023-04-15T03:50:46;2.78;;;0.82;;
49820;SDS011;36893;52.520;13.450;2023-04-15T04:00:47;1.23;;;0.65;;
49820;SDS011;36893;52.520;13.450;2023-04-15T04:10:47;0.70;;;0.37;;
49820;SDS011;36893;52.520;13.450;2023-04-15T04:20:48;4.43;;;1.23;;
49820;SDS011;36893;52.520;13.450;2023-04-15T04:30:49;1.55;;;0.68;;
49820;SDS011;36893;52.520;13.450;2023-04-15T04:40:49;2.15;;;0.95;;
49820;SDS011;36893;52.520;13.450;2023-04-15T04:50:50;1.30;;;0.93;;
49820;SDS011;36893;52.520;13.450;2023-04-15T05:00:51;2.35;;;1.38;;
49820;SDS011;36893;52.520;13.450;2023-04-15T05:10:52;2.30;;;1.23;;
49820;SDS011;36893;52.520;13.450;2023-04-15T05:20:52;2.30;;;1.07;;
49820;SDS011;36893;52.520;13.450;2023-04-15T05:30:53;1.43;;;0.77;;
49820;SDS011;36893;52.520;13.450;2023-04-15T05:40:54;1.75;;;1.30;;
49820;SDS011;36893;52.520;13.450;2023-04-15T05:50:55;1.95;;;0.93;;
49820;SDS011;36893;52.520;13.450;2023-04-15T06:00:56;1.73;;;1.00;;
49820;SDS011;36893;52.520;13.450;2023-04-15T06:10:57;2.53;;;0.90;;
49820;SDS011;36893;52.520;13.450;2023-04-15T06:20:58;1.88;;;1.13;;
49820;SDS011;36893;52.520;13.450;2023-04-15T06:30:58;1.43;;;1.00;;
49820;SDS011;36893;52.520;13.450;2023-04-15T06:41:00;1.98;;;0.90;;
49820;SDS011;36893;52.520;13.450;2023-04-15T06:51:02;2.13;;;1.10;;
49820;SDS011;36893;52.520;13.450;2023-04-15T07:01:03;1.60;;;0.90;;
49820;SDS011;36893;52.520;13.450;2023-04-15T07:11:04;1.80;;;1.02;;
49820;SDS011;36893;52.520;13.450;2023-04-15T07:21:05;2.25;;;0.90;;
49820;SDS011;36893;52.520;13.450;2023-04-15T07:31:05;1.37;;;0.93;;
49820;SDS011;36893;52.520;13.450;2023-04-15T07:41:06;1.27;;;0.87;;
49820;SDS011;36893;52.520;13.450;2023-04-15T07:51:07;1.07;;;0.70;;
49820;SDS011;36893;52.520;13.450;2023-04-15T08:01:07;1.95;;;1.08;;
49820;SDS011;36893;52.520;13.450;2023-04-15T08:11:08;1.93;;;1.13;;
49820;SDS011;36893;52.520;13.450;2023-04-15T08:21:09;1.87;;;0.87;;
49820;SDS011;36893;52.520;13.450;2023-04-15T08:31:11;1.15;;;0.90;;
49820;SDS011;36893;52.520;13.450;2023-04-15T08:41:20;1.85;;;1.13;;
49820;SDS011;36893;52.520;13.450;2023-04-15T08:51:24;2.92;;;1.17;;
49820;SDS011;36893;52.520;13.450;2023-04-15T09:01:26;0.80;;;0.60;;
49820;SDS011;36893;52.520;13.450;2023-04-15T09:11:28;3.25;;;1.23;;
49820;SDS011;36893;52.520;13.450;2023-04-15T09:21:30;3.65;;;1.35;;
49820;SDS011;36893;52.520;13.450;2023-04-15T09:31:31;4.28;;;1.92;;
49820;SDS011;36893;52.520;13.450;2023-04-15T09:41:32;4.13;;;1.20;;
49820;SDS011;36893;52.520;13.450;2023-04-15T09:51:33;2.15;;;1.30;;
49820;SDS011;36893;52.520;13.450;2023-04-15T10:01:35;3.80;;;1.10;;
49820;SDS011;36893;52.520;13.450;2023-04-15T10:11:37;3.03;;;1.50;;
49820;SDS011;36893;52.520;13.450;2023-04-15T10:21:38;3.13;;;1.15;;
49820;SDS011;36893;52.520;13.450;2023-04-15T10:31:40;2.90;;;1.23;;
49820;SDS011;36893;52.520;13.450;2023-04-15T10:41:41;2.28;;;1.52;;
49820;SDS011;36893;52.520;13.450;2023-04-15T10:51:45;2.30;;;1.53;;
49820;SDS011;36893;52.520;13.450;2023-04-15T11:01:54;2.15;;;1.40;;
49820;SDS011;36893;52.520;13.450;2023-04-15T11:12:05;2.75;;;1.50;;
49820;SDS011;36893;52.520;13.450;2023-04-15T11:22:10;6.03;;;2.00;;
49820;SDS011;36893;52.520;13.450;2023-04-15T11:32:11;6.03;;;2.40;;
49820;SDS011;36893;52.520;13.450;2023-04-15T11:42:17;2.00;;;1.10;;
49820;SDS011;36893;52.520;13.450;2023-04-15T11:52:18;4.15;;;1.70;;
49820;SDS011;36893;52.520;13.450;2023-04-15T12:02:19;5.13;;;1.83;;
49820;SDS011;36893;52.520;13.450;2023-04-15T12:12:30;3.28;;;1.70;;
49820;SDS011;36893;52.520;13.450;2023-04-15T12:22:31;3.33;;;1.70;;
49820;SDS011;36893;52.520;13.450;2023-04-15T12:32:37;3.47;;;1.83;;
49820;SDS011;36893;52.520;13.450;2023-04-15T12:42:38;3.00;;;1.70;;
49820;SDS011;36893;52.520;13.450;2023-04-15T12:52:39;4.20;;;1.97;;
49820;SDS011;36893;52.520;13.450;2023-04-15T13:02:40;3.87;;;2.37;;
49820;SDS011;36893;52.520;13.450;2023-04-15T13:12:43;4.63;;;1.73;;
49820;SDS011;36893;52.520;13.450;2023-04-15T13:22:45;4.18;;;2.28;;
49820;SDS011;36893;52.520;13.450;2023-04-15T13:32:46;3.17;;;1.90;;
49820;SDS011;36893;52.520;13.450;2023-04-15T13:42:47;5.40;;;2.37;;
49820;SDS011;36893;52.520;13.450;2023-04-15T13:52:47;2.93;;;1.80;;
49820;SDS011;36893;52.520;13.450;2023-04-15T14:02:48;5.87;;;2.13;;
49820;SDS011;36893;52.520;13.450;2023-04-15T14:12:49;3.70;;;1.80;;
49820;SDS011;36893;52.520;13.450;2023-04-15T14:22:49;3.33;;;1.83;;
49820;SDS011;36893;52.520;13.450;2023-04-15T14:32:50;4.45;;;2.30;;
49820;SDS011;36893;52.520;13.450;2023-04-15T14:42:51;6.63;;;3.47;;
49820;SDS011;36893;52.520;13.450;2023-04-15T14:52:51;8.23;;;4.17;;
49820;SDS011;36893;52.520;13.450;2023-04-15T15:02:52;10.37;;;3.40;;
49820;SDS011;36893;52.520;13.450;2023-04-15T15:12:53;8.23;;;3.17;;
49820;SDS011;36893;52.520;13.450;2023-04-15T15:22:53;6.03;;;2.27;;
49820;SDS011;36893;52.520;13.450;2023-04-15T15:32:54;6.75;;;3.38;;
49820;SDS011;36893;52.520;13.450;2023-04-15T15:42:55;8.37;;;3.93;;
49820;SDS011;36893;52.520;13.450;2023-04-15T15:52:55;6.70;;;3.53;;
49820;SDS011;36893;52.520;13.450;2023-04-15T16:02:57;5.93;;;2.35;;
49820;SDS011;36893;52.520;13.450;2023-04-15T16:12:58;9.93;;;4.30;;
49820;SDS011;36893;52.520;13.450;2023-04-15T16:22:58;8.30;;;4.20;;
49820;SDS011;36893;52.520;13.450;2023-04-15T16:33:07;10.48;;;4.82;;
49820;SDS011;36893;52.520;13.450;2023-04-15T16:43:08;5.05;;;2.55;;
49820;SDS011;36893;52.520;13.450;2023-04-15T16:53:10;10.98;;;2.20;;
49820;SDS011;36893;52.520;13.450;2023-04-15T17:03:11;6.10;;;2.53;;
49820;SDS011;36893;52.520;13.450;2023-04-15T17:13:11;6.63;;;3.07;;
49820;SDS011;36893;52.520;13.450;2023-04-15T17:23:12;3.87;;;2.57;;
49820;SDS011;36893;52.520;13.450;2023-04-15T17:33:13;8.30;;;3.43;;
49820;SDS011;36893;52.520;13.450;2023-04-15T17:43:13;5.97;;;3.07;;
49820;SDS011;36893;52.520;13.450;2023-04-15T17:53:14;5.70;;;2.78;;
49820;SDS011;36893;52.520;13.450;2023-04-15T18:03:15;8.45;;;2.63;;
49820;SDS011;36893;52.520;13.450;2023-04-15T18:13:16;6.50;;;2.47;;
49820;SDS011;36893;52.520;13.450;2023-04-15T18:23:16;5.03;;;2.23;;
49820;SDS011;36893;52.520;13.450;2023-04-15T18:33:17;8.83;;;2.50;;
49820;SDS011;36893;52.520;13.450;2023-04-15T18:43:17;6.17;;;2.77;;
49820;SDS011;36893;52.520;13.450;2023-04-15T18:53:19;4.90;;;1.80;;
49820;SDS011;36893;52.520;13.450;2023-04-15T19:03:20;4.65;;;2.35;;
49820;SDS011;36893;52.520;13.450;2023-04-15T19:13:20;4.53;;;2.50;;
49820;SDS011;36893;52.520;13.450;2023-04-15T19:23:22;3.70;;;2.23;;
49820;SDS011;36893;52.520;13.450;2023-04-15T19:33:22;3.65;;;2.45;;
49820;SDS011;36893;52.520;13.450;2023-04-15T19:43:26;5.60;;;2.40;;
49820;SDS011;36893;52.520;13.450;2023-04-15T19:53:27;4.50;;;2.23;;
49820;SDS011;36893;52.520;13.450;2023-04-15T20:03:28;4.38;;;2.10;;
49820;SDS011;36893;52.520;13.450;2023-04-15T20:13:29;3.92;;;2.15;;
49820;SDS011;36893;52.520;13.450;2023-04-15T20:23:31;4.63;;;2.28;;
49820;SDS011;36893;52.520;13.450;2023-04-15T20:33:34;4.93;;;2.63;;
49820;SDS011;36893;52.520;13.450;2023-04-15T20:43:34;5.70;;;2.07;;
49820;SDS011;36893;52.520;13.450;2023-04-15T20:53:35;5.07;;;2.47;;
49820;SDS011;36893;52.520;13.450;2023-04-15T21:03:35;4.37;;;2.13;;
49820;SDS011;36893;52.520;13.450;2023-04-15T21:13:36;4.07;;;2.20;;
49820;SDS011;36893;52.520;13.450;2023-04-15T21:23:37;3.00;;;1.77;;
49820;SDS011;36893;52.520;13.450;2023-04-15T21:33:37;4.97;;;2.10;;
49820;SDS011;36893;52.520;13.450;2023-04-15T21:43:38;3.40;;;1.80;;
49820;SDS011;36893;52.520;13.450;2023-04-15T21:53:39;2.73;;;1.57;;
49820;SDS011;36893;52.520;13.450;2023-04-15T22:03:39;1.53;;;1.30;;
49820;SDS011;36893;52.520;13.450;2023-04-15T22:13:40;2.03;;;1.37;;
49820;SDS011;36893;52.520;13.450;2023-04-15T22:23:40;2.90;;;1.63;;
49820;SDS011;36893;52.520;13.450;2023-04-15T22:33:45;3.97;;;1.52;;
49820;SDS011;36893;52.520;13.450;2023-04-15T22:43:45;3.73;;;1.73;;
49820;SDS011;36893;52.520;13.450;2023-04-15T22:53:46;3.53;;;1.63;;
49820;SDS011;36893;52.520;13.450;2023-04-15T23:03:47;6.63;;;1.60;;
49820;SDS011;36893;52.520;13.450;2023-04-15T23:13:50;5.40;;;1.70;;
49820;SDS011;36893;52.520;13.450;2023-04-15T23:23:52;4.95;;;1.88;;
49820;SDS011;36893;52.520;13.450;2023-04-15T23:33:53;3.03;;;1.30;;
49820;SDS011;36893;52.520;13.450;2023-04-15T23:43:53;3.47;;;1.60;;
49820;SDS011;36893;52.520;13.450;2023-04-15T23:53:54;1.87;;;1.17;;
